sensor_id;sensor_type;location;lat;lon;timestamp;temperature;humidity
19930;DHT22;10127;47.780;9.606;2023-04-15T00:00:38;5.10;99.90
19930;DHT22;10127;47.780;9.606;2023-04-15T00:03:04;5.00;99.90
19930;DHT22;10127;47.780;9.606;2023-04-15T00:05:33;4.90;99.90
19930;DHT22;10127;47.780;9.606;2023-04-15T00:07:59;4.80;99.90
19930;DHT22;10127;47.780;9.606;2023-04-15T00:10:25;4.70;99.90
19930;DHT22;10127;47.780;9.606;2023-04-15T00:12:51;4.60;99.90
19930;DHT22;10127;47.780;9.606;2023-04-15T00:15:17;4.50;99.90
19930;DHT22;10127;47.780;9.606;2023-04-15T00:17:43;4.60;99.90
19930;DHT22;10127;47.780;9.606;2023-04-15T00:20:09;4.60;99.90
19930;DHT22;10127;47.780;9.606;2023-04-15T00:22:35;4.60;99.90
19930;DHT22;10127;47.780;9.606;2023-04-15T00:25:01;4.50;99.90
19930;DHT22;10127;47.780;9.606;2023-04-15T00:27:26;4.50;99.90
19930;DHT22;10127;47.780;9.606;2023-04-15T00:29:52;4.50;99.90
19930;DHT22;10127;47.780;9.606;2023-04-15T00:32:18;4.60;99.90
19930;DHT22;10127;47.780;9.606;2023-04-15T00:34:44;4.60;99.90
19930;DHT22;10127;47.780;9.606;2023-04-15T00:37:10;4.50;99.90
19930;DHT22;10127;47.780;9.606;2023-04-15T00:39:37;4.50;99.90
19930;DHT22;10127;47.780;9.606;2023-04-15T00:42:03;4.40;99.90
19930;DHT22;10127;47.780;9.606;2023-04-15T00:44:29;4.60;99.90
19930;DHT22;10127;47.780;9.606;2023-04-15T00:46:56;4.60;99.90
19930;DHT22;10127;47.780;9.606;2023-04-15T00:49:22;4.60;99.90
19930;DHT22;10127;47.780;9.606;2023-04-15T00:51:49;4.60;99.90
19930;DHT22;10127;47.780;9.606;2023-04-15T00:54:22;4.60;99.90
19930;DHT22;10127;47.780;9.606;2023-04-15T00:56:47;4.60;99.90
19930;DHT22;10127;47.780;9.606;2023-04-15T00:59:13;4.50;99.90
19930;DHT22;10127;47.780;9.606;2023-04-15T01:01:39;4.50;99.90
19930;DHT22;10127;47.780;9.606;2023-04-15T01:04:05;4.50;99.90
19930;DHT22;10127;47.780;9.606;2023-04-15T01:06:31;4.50;99.90
19930;DHT22;10127;47.780;9.606;2023-04-15T01:08:58;4.50;99.90
19930;DHT22;10127;47.780;9.606;2023-04-15T01:11:24;4.50;99.90
19930;DHT22;10127;47.780;9.606;2023-04-15T01:13:51;4.40;99.90
19930;DHT22;10127;47.780;9.606;2023-04-15T01:16:18;4.30;99.90
19930;DHT22;10127;47.780;9.606;2023-04-15T01:18:50;4.20;99.90
19930;DHT22;10127;47.780;9.606;2023-04-15T01:21:22;4.20;99.90
19930;DHT22;10127;47.780;9.606;2023-04-15T01:23:48;4.20;99.90
19930;DHT22;10127;47.780;9.606;2023-04-15T01:26:15;4.00;99.90
19930;DHT22;10127;47.780;9.606;2023-04-15T01:28:41;3.80;99.90
19930;DHT22;10127;47.780;9.606;2023-04-15T01:31:09;3.70;99.90
19930;DHT22;10127;47.780;9.606;2023-04-15T01:33:36;3.80;99.90
19930;DHT22;10127;47.780;9.606;2023-04-15T01:36:01;3.80;99.90
19930;DHT22;10127;47.780;9.606;2023-04-15T01:38:28;3.80;99.90
19930;DHT22;10127;47.780;9.606;2023-04-15T01:40:54;3.80;99.90
19930;DHT22;10127;47.780;9.606;2023-04-15T01:43:19;3.80;99.90
19930;DHT22;10127;47.780;9.606;2023-04-15T01:45:45;3.80;99.90
19930;DHT22;10127;47.780;9.606;2023-04-15T01:48:11;3.80;99.90
19930;DHT22;10127;47.780;9.606;2023-04-15T01:50:36;3.80;99.90
19930;DHT22;10127;47.780;9.606;2023-04-15T01:53:02;3.70;99.90
19930;DHT22;10127;47.780;9.606;2023-04-15T01:55:35;3.80;99.90
19930;DHT22;10127;47.780;9.606;2023-04-15T01:58:01;3.70;99.90
19930;DHT22;10127;47.780;9.606;2023-04-15T02:00:27;3.70;99.90
19930;DHT22;10127;47.780;9.606;2023-04-15T02:02:53;3.70;99.90
19930;DHT22;10127;47.780;9.606;2023-04-15T02:05:18;3.70;99.90
19930;DHT22;10127;47.780;9.606;2023-04-15T02:07:44;3.70;99.90
19930;DHT22;10127;47.780;9.606;2023-04-15T02:10:10;3.70;99.90
19930;DHT22;10127;47.780;9.606;2023-04-15T02:12:38;3.70;99.90
19930;DHT22;10127;47.780;9.606;2023-04-15T02:15:04;3.70;99.90
19930;DHT22;10127;47.780;9.606;2023-04-15T02:17:32;3.70;99.90
19930;DHT22;10127;47.780;9.606;2023-04-15T02:19:59;3.70;99.90
19930;DHT22;10127;47.780;9.606;2023-04-15T02:22:24;3.60;99.90
19930;DHT22;10127;47.780;9.606;2023-04-15T02:24:50;3.60;99.90
19930;DHT22;10127;47.780;9.606;2023-04-15T02:27:16;3.50;99.90
19930;DHT22;10127;47.780;9.606;2023-04-15T02:29:45;3.50;99.90
19930;DHT22;10127;47.780;9.606;2023-04-15T02:32:13;3.40;99.90
19930;DHT22;10127;47.780;9.606;2023-04-15T02:34:40;3.50;99.90
19930;DHT22;10127;47.780;9.606;2023-04-15T02:37:08;3.50;99.90
19930;DHT22;10127;47.780;9.606;2023-04-15T02:39:33;3.50;99.90
19930;DHT22;10127;47.780;9.606;2023-04-15T02:41:59;3.50;99.90
19930;DHT22;10127;47.780;9.606;2023-04-15T02:44:25;3.40;99.90
19930;DHT22;10127;47.780;9.606;2023-04-15T02:46:52;3.50;99.90
19930;DHT22;10127;47.780;9.606;2023-04-15T02:49:22;3.60;99.90
19930;DHT22;10127;47.780;9.606;2023-04-15T03:12:25;3.40;99.90
19930;DHT22;10127;47.780;9.606;2023-04-15T03:14:50;3.30;99.90
19930;DHT22;10127;47.780;9.606;2023-04-15T03:17:16;3.30;99.90
19930;DHT22;10127;47.780;9.606;2023-04-15T03:19:43;3.30;99.90
19930;DHT22;10127;47.780;9.606;2023-04-15T03:22:08;3.20;99.90
19930;DHT22;10127;47.780;9.606;2023-04-15T03:24:34;3.10;99.90
19930;DHT22;10127;47.780;9.606;2023-04-15T03:26:59;3.20;99.90
19930;DHT22;10127;47.780;9.606;2023-04-15T03:29:26;3.20;99.90
19930;DHT22;10127;47.780;9.606;2023-04-15T03:31:51;3.10;99.90
19930;DHT22;10127;47.780;9.606;2023-04-15T03:34:17;3.10;99.90
19930;DHT22;10127;47.780;9.606;2023-04-15T03:36:43;3.00;99.90
19930;DHT22;10127;47.780;9.606;2023-04-15T03:39:08;3.10;99.90
19930;DHT22;10127;47.780;9.606;2023-04-15T03:41:34;3.20;99.90
19930;DHT22;10127;47.780;9.606;2023-04-15T03:43:59;3.30;99.90
19930;DHT22;10127;47.780;9.606;2023-04-15T03:46:25;3.40;99.90
19930;DHT22;10127;47.780;9.606;2023-04-15T03:48:51;3.30;99.90
19930;DHT22;10127;47.780;9.606;2023-04-15T03:51:16;3.10;99.90
19930;DHT22;10127;47.780;9.606;2023-04-15T03:53:42;3.10;99.90
19930;DHT22;10127;47.780;9.606;2023-04-15T03:56:07;3.10;99.90
19930;DHT22;10127;47.780;9.606;2023-04-15T03:58:33;3.10;99.90
19930;DHT22;10127;47.780;9.606;2023-04-15T04:00:58;3.10;99.90
19930;DHT22;10127;47.780;9.606;2023-04-15T04:03:24;3.20;99.90
19930;DHT22;10127;47.780;9.606;2023-04-15T04:05:50;3.10;99.90
19930;DHT22;10127;47.780;9.606;2023-04-15T04:08:15;3.10;99.90
19930;DHT22;10127;47.780;9.606;2023-04-15T04:10:41;3.10;99.90
19930;DHT22;10127;47.780;9.606;2023-04-15T04:13:07;3.00;99.90
19930;DHT22;10127;47.780;9.606;2023-04-15T04:15:33;2.90;99.90
19930;DHT22;10127;47.780;9.606;2023-04-15T04:17:58;2.90;99.90
19930;DHT22;10127;47.780;9.606;2023-04-15T04:20:24;3.00;99.90
19930;DHT22;10127;47.780;9.606;2023-04-15T04:22:49;3.00;99.90
19930;DHT22;10127;47.780;9.606;2023-04-15T04:25:15;2.90;99.90
19930;DHT22;10127;47.780;9.606;2023-04-15T04:27:41;3.00;99.90
19930;DHT22;10127;47.780;9.606;2023-04-15T04:30:07;3.00;99.90
19930;DHT22;10127;47.780;9.606;2023-04-15T04:32:33;3.10;99.90
19930;DHT22;10127;47.780;9.606;2023-04-15T04:34:58;3.20;99.90
19930;DHT22;10127;47.780;9.606;2023-04-15T04:37:24;3.10;99.90
19930;DHT22;10127;47.780;9.606;2023-04-15T04:39:50;3.10;99.90
19930;DHT22;10127;47.780;9.606;2023-04-15T04:42:15;3.00;99.90
19930;DHT22;10127;47.780;9.606;2023-04-15T04:44:41;3.10;99.90
19930;DHT22;10127;47.780;9.606;2023-04-15T04:47:06;3.20;99.90
19930;DHT22;10127;47.780;9.606;2023-04-15T04:49:32;3.10;99.90
19930;DHT22;10127;47.780;9.606;2023-04-15T04:51:58;3.10;99.90
19930;DHT22;10127;47.780;9.606;2023-04-15T04:54:24;3.10;99.90
19930;DHT22;10127;47.780;9.606;2023-04-15T04:56:49;3.10;99.90
19930;DHT22;10127;47.780;9.606;2023-04-15T04:59:15;3.10;99.90
19930;DHT22;10127;47.780;9.606;2023-04-15T05:01:41;3.10;99.90
19930;DHT22;10127;47.780;9.606;2023-04-15T05:04:07;3.10;99.90
19930;DHT22;10127;47.780;9.606;2023-04-15T05:06:32;3.10;99.90
19930;DHT22;10127;47.780;9.606;2023-04-15T05:08:58;3.10;99.90
19930;DHT22;10127;47.780;9.606;2023-04-15T05:11:24;3.10;99.90
19930;DHT22;10127;47.780;9.606;2023-04-15T05:13:49;3.30;99.90
19930;DHT22;10127;47.780;9.606;2023-04-15T05:16:15;3.40;99.90
19930;DHT22;10127;47.780;9.606;2023-04-15T05:18:41;3.30;99.90
19930;DHT22;10127;47.780;9.606;2023-04-15T05:21:06;3.20;99.90
19930;DHT22;10127;47.780;9.606;2023-04-15T05:23:32;3.10;99.90
19930;DHT22;10127;47.780;9.606;2023-04-15T05:25:58;3.00;99.90
19930;DHT22;10127;47.780;9.606;2023-04-15T05:28:23;3.10;99.90
19930;DHT22;10127;47.780;9.606;2023-04-15T05:30:49;3.20;99.90
19930;DHT22;10127;47.780;9.606;2023-04-15T05:33:15;3.40;99.90
19930;DHT22;10127;47.780;9.606;2023-04-15T05:35:40;3.40;99.90
19930;DHT22;10127;47.780;9.606;2023-04-15T05:38:06;3.40;99.90
19930;DHT22;10127;47.780;9.606;2023-04-15T05:40:32;3.50;99.90
19930;DHT22;10127;47.780;9.606;2023-04-15T05:42:57;3.40;99.90
19930;DHT22;10127;47.780;9.606;2023-04-15T05:45:23;3.50;99.90
19930;DHT22;10127;47.780;9.606;2023-04-15T05:47:48;3.60;99.90
19930;DHT22;10127;47.780;9.606;2023-04-15T05:50:15;3.50;99.90
19930;DHT22;10127;47.780;9.606;2023-04-15T05:52:41;3.60;99.90
19930;DHT22;10127;47.780;9.606;2023-04-15T05:55:06;3.70;99.90
19930;DHT22;10127;47.780;9.606;2023-04-15T05:57:39;3.90;99.90
19930;DHT22;10127;47.780;9.606;2023-04-15T06:00:05;4.10;99.90
19930;DHT22;10127;47.780;9.606;2023-04-15T06:02:31;4.30;99.90
19930;DHT22;10127;47.780;9.606;2023-04-15T06:04:56;4.40;99.90
19930;DHT22;10127;47.780;9.606;2023-04-15T06:07:22;4.40;99.90
19930;DHT22;10127;47.780;9.606;2023-04-15T06:09:48;4.40;99.90
19930;DHT22;10127;47.780;9.606;2023-04-15T06:12:14;4.30;99.90
19930;DHT22;10127;47.780;9.606;2023-04-15T06:14:40;4.20;99.90
19930;DHT22;10127;47.780;9.606;2023-04-15T06:17:06;4.10;99.90
19930;DHT22;10127;47.780;9.606;2023-04-15T06:19:32;3.90;99.90
19930;DHT22;10127;47.780;9.606;2023-04-15T06:21:58;3.90;99.90
19930;DHT22;10127;47.780;9.606;2023-04-15T06:24:23;3.90;99.90
19930;DHT22;10127;47.780;9.606;2023-04-15T06:26:49;4.10;99.90
19930;DHT22;10127;47.780;9.606;2023-04-15T06:29:15;4.20;99.90
19930;DHT22;10127;47.780;9.606;2023-04-15T06:31:40;4.40;99.90
19930;DHT22;10127;47.780;9.606;2023-04-15T06:34:06;4.60;99.90
19930;DHT22;10127;47.780;9.606;2023-04-15T06:36:32;4.70;99.90
19930;DHT22;10127;47.780;9.606;2023-04-15T06:38:57;4.70;99.90
19930;DHT22;10127;47.780;9.606;2023-04-15T06:41:23;4.70;99.90
19930;DHT22;10127;47.780;9.606;2023-04-15T06:43:49;4.60;99.90
19930;DHT22;10127;47.780;9.606;2023-04-15T06:46:15;4.70;99.90
19930;DHT22;10127;47.780;9.606;2023-04-15T06:48:40;5.00;99.90
19930;DHT22;10127;47.780;9.606;2023-04-15T06:51:06;5.20;99.90
19930;DHT22;10127;47.780;9.606;2023-04-15T06:53:31;5.20;99.90
19930;DHT22;10127;47.780;9.606;2023-04-15T06:55:57;5.50;99.90
19930;DHT22;10127;47.780;9.606;2023-04-15T06:58:23;5.50;99.90
19930;DHT22;10127;47.780;9.606;2023-04-15T07:00:48;5.40;99.90
19930;DHT22;10127;47.780;9.606;2023-04-15T07:03:14;5.50;99.90
19930;DHT22;10127;47.780;9.606;2023-04-15T07:05:40;5.70;99.90
19930;DHT22;10127;47.780;9.606;2023-04-15T07:08:06;5.90;99.90
19930;DHT22;10127;47.780;9.606;2023-04-15T07:10:32;6.10;99.90
19930;DHT22;10127;47.780;9.606;2023-04-15T07:12:58;6.40;99.90
19930;DHT22;10127;47.780;9.606;2023-04-15T07:15:24;6.70;99.90
19930;DHT22;10127;47.780;9.606;2023-04-15T07:17:49;6.80;99.90
19930;DHT22;10127;47.780;9.606;2023-04-15T07:20:15;7.00;99.90
19930;DHT22;10127;47.780;9.606;2023-04-15T07:22:41;7.00;99.90
19930;DHT22;10127;47.780;9.606;2023-04-15T07:25:07;7.20;99.90
19930;DHT22;10127;47.780;9.606;2023-04-15T07:27:33;7.60;99.90
19930;DHT22;10127;47.780;9.606;2023-04-15T07:29:58;7.80;99.90
19930;DHT22;10127;47.780;9.606;2023-04-15T07:32:24;7.80;99.90
19930;DHT22;10127;47.780;9.606;2023-04-15T07:34:50;8.10;99.90
19930;DHT22;10127;47.780;9.606;2023-04-15T07:37:16;8.50;99.90
19930;DHT22;10127;47.780;9.606;2023-04-15T07:39:41;8.70;99.90
19930;DHT22;10127;47.780;9.606;2023-04-15T07:42:08;8.90;99.90
19930;DHT22;10127;47.780;9.606;2023-04-15T07:44:33;9.10;99.90
19930;DHT22;10127;47.780;9.606;2023-04-15T07:47:01;9.00;99.90
19930;DHT22;10127;47.780;9.606;2023-04-15T07:49:27;9.00;99.90
19930;DHT22;10127;47.780;9.606;2023-04-15T07:51:52;9.10;99.90
19930;DHT22;10127;47.780;9.606;2023-04-15T07:54:18;9.20;99.90
19930;DHT22;10127;47.780;9.606;2023-04-15T07:56:43;9.50;99.90
19930;DHT22;10127;47.780;9.606;2023-04-15T07:59:09;9.60;99.90
19930;DHT22;10127;47.780;9.606;2023-04-15T08:01:36;9.70;99.90
19930;DHT22;10127;47.780;9.606;2023-04-15T08:04:02;9.70;99.90
19930;DHT22;10127;47.780;9.606;2023-04-15T08:06:28;9.90;99.90
19930;DHT22;10127;47.780;9.606;2023-04-15T08:08:54;9.90;99.90
19930;DHT22;10127;47.780;9.606;2023-04-15T08:11:20;10.10;99.90
19930;DHT22;10127;47.780;9.606;2023-04-15T08:13:46;10.00;99.90
19930;DHT22;10127;47.780;9.606;2023-04-15T08:16:22;9.90;99.90
19930;DHT22;10127;47.780;9.606;2023-04-15T08:18:50;9.70;99.90
19930;DHT22;10127;47.780;9.606;2023-04-15T08:21:17;9.80;99.90
19930;DHT22;10127;47.780;9.606;2023-04-15T08:23:44;9.90;99.90
19930;DHT22;10127;47.780;9.606;2023-04-15T08:26:10;9.90;99.90
19930;DHT22;10127;47.780;9.606;2023-04-15T08:28:38;9.90;99.90
19930;DHT22;10127;47.780;9.606;2023-04-15T08:31:04;9.90;99.90
19930;DHT22;10127;47.780;9.606;2023-04-15T08:33:30;10.00;99.90
19930;DHT22;10127;47.780;9.606;2023-04-15T08:35:55;10.10;99.90
19930;DHT22;10127;47.780;9.606;2023-04-15T08:38:22;10.20;99.90
19930;DHT22;10127;47.780;9.606;2023-04-15T08:40:48;10.20;99.90
19930;DHT22;10127;47.780;9.606;2023-04-15T08:43:26;10.40;99.90
19930;DHT22;10127;47.780;9.606;2023-04-15T08:45:53;10.50;99.90
19930;DHT22;10127;47.780;9.606;2023-04-15T08:48:19;10.70;99.90
19930;DHT22;10127;47.780;9.606;2023-04-15T08:50:46;10.70;99.90
19930;DHT22;10127;47.780;9.606;2023-04-15T08:53:12;10.70;99.90
19930;DHT22;10127;47.780;9.606;2023-04-15T08:55:44;10.90;99.90
19930;DHT22;10127;47.780;9.606;2023-04-15T08:58:11;11.20;99.90
19930;DHT22;10127;47.780;9.606;2023-04-15T09:00:38;11.20;99.90
19930;DHT22;10127;47.780;9.606;2023-04-15T09:03:04;11.10;99.90
19930;DHT22;10127;47.780;9.606;2023-04-15T09:05:37;11.20;99.90
19930;DHT22;10127;47.780;9.606;2023-04-15T09:08:03;11.30;99.90
19930;DHT22;10127;47.780;9.606;2023-04-15T09:10:30;11.40;99.90
19930;DHT22;10127;47.780;9.606;2023-04-15T09:12:57;11.70;99.90
19930;DHT22;10127;47.780;9.606;2023-04-15T09:15:25;11.50;99.90
19930;DHT22;10127;47.780;9.606;2023-04-15T09:17:54;11.40;99.90
19930;DHT22;10127;47.780;9.606;2023-04-15T09:20:21;11.50;99.90
19930;DHT22;10127;47.780;9.606;2023-04-15T09:22:48;11.70;99.90
19930;DHT22;10127;47.780;9.606;2023-04-15T09:27:51;11.90;99.90
19930;DHT22;10127;47.780;9.606;2023-04-15T09:30:17;12.00;99.90
19930;DHT22;10127;47.780;9.606;2023-04-15T09:32:53;12.10;99.90
19930;DHT22;10127;47.780;9.606;2023-04-15T09:35:20;12.30;99.90
19930;DHT22;10127;47.780;9.606;2023-04-15T09:37:47;12.20;99.90
19930;DHT22;10127;47.780;9.606;2023-04-15T09:40:13;12.50;99.90
19930;DHT22;10127;47.780;9.606;2023-04-15T09:42:54;12.60;99.90
19930;DHT22;10127;47.780;9.606;2023-04-15T09:45:21;12.60;99.90
19930;DHT22;10127;47.780;9.606;2023-04-15T09:47:47;12.50;99.90
19930;DHT22;10127;47.780;9.606;2023-04-15T09:50:12;12.30;99.90
19930;DHT22;10127;47.780;9.606;2023-04-15T09:52:43;12.20;99.90
19930;DHT22;10127;47.780;9.606;2023-04-15T09:55:09;12.30;99.90
19930;DHT22;10127;47.780;9.606;2023-04-15T09:57:36;12.60;99.90
19930;DHT22;10127;47.780;9.606;2023-04-15T10:00:03;12.70;99.90
19930;DHT22;10127;47.780;9.606;2023-04-15T10:02:31;12.70;99.90
19930;DHT22;10127;47.780;9.606;2023-04-15T10:04:56;12.60;99.90
19930;DHT22;10127;47.780;9.606;2023-04-15T10:07:22;12.70;99.90
19930;DHT22;10127;47.780;9.606;2023-04-15T10:09:48;12.70;99.90
19930;DHT22;10127;47.780;9.606;2023-04-15T10:12:16;12.60;99.90
19930;DHT22;10127;47.780;9.606;2023-04-15T10:14:42;12.60;99.90
19930;DHT22;10127;47.780;9.606;2023-04-15T10:17:10;12.80;99.90
19930;DHT22;10127;47.780;9.606;2023-04-15T10:19:37;13.00;99.90
19930;DHT22;10127;47.780;9.606;2023-04-15T10:22:03;13.20;99.90
19930;DHT22;10127;47.780;9.606;2023-04-15T10:24:32;13.50;99.90
19930;DHT22;10127;47.780;9.606;2023-04-15T10:26:59;13.60;99.90
19930;DHT22;10127;47.780;9.606;2023-04-15T10:29:25;13.60;99.90
19930;DHT22;10127;47.780;9.606;2023-04-15T10:31:54;13.80;99.90
19930;DHT22;10127;47.780;9.606;2023-04-15T10:34:22;13.90;99.90
19930;DHT22;10127;47.780;9.606;2023-04-15T10:36:48;13.90;99.90
19930;DHT22;10127;47.780;9.606;2023-04-15T10:42:15;14.10;99.90
19930;DHT22;10127;47.780;9.606;2023-04-15T10:44:42;13.90;99.90
19930;DHT22;10127;47.780;9.606;2023-04-15T10:47:16;13.90;99.90
19930;DHT22;10127;47.780;9.606;2023-04-15T10:49:49;13.90;99.90
19930;DHT22;10127;47.780;9.606;2023-04-15T10:52:17;13.80;99.90
19930;DHT22;10127;47.780;9.606;2023-04-15T10:54:44;14.10;99.90
19930;DHT22;10127;47.780;9.606;2023-04-15T10:57:22;14.00;99.90
19930;DHT22;10127;47.780;9.606;2023-04-15T11:02:47;13.90;99.90
19930;DHT22;10127;47.780;9.606;2023-04-15T11:05:14;13.80;99.90
19930;DHT22;10127;47.780;9.606;2023-04-15T11:12:55;14.00;99.90
19930;DHT22;10127;47.780;9.606;2023-04-15T11:15:32;13.90;99.90
19930;DHT22;10127;47.780;9.606;2023-04-15T11:18:11;14.10;98.40
19930;DHT22;10127;47.780;9.606;2023-04-15T11:20:40;14.00;97.80
19930;DHT22;10127;47.780;9.606;2023-04-15T11:23:08;14.40;98.80
19930;DHT22;10127;47.780;9.606;2023-04-15T11:25:34;14.40;99.40
19930;DHT22;10127;47.780;9.606;2023-04-15T11:28:02;14.90;99.60
19930;DHT22;10127;47.780;9.606;2023-04-15T11:30:33;15.00;99.00
19930;DHT22;10127;47.780;9.606;2023-04-15T11:33:08;15.30;98.20
19930;DHT22;10127;47.780;9.606;2023-04-15T11:35:34;15.50;97.80
19930;DHT22;10127;47.780;9.606;2023-04-15T11:38:04;15.40;96.90
19930;DHT22;10127;47.780;9.606;2023-04-15T11:40:30;15.30;96.80
19930;DHT22;10127;47.780;9.606;2023-04-15T11:43:08;15.30;97.00
19930;DHT22;10127;47.780;9.606;2023-04-15T11:45:46;15.20;96.20
19930;DHT22;10127;47.780;9.606;2023-04-15T11:48:12;15.00;96.30
19930;DHT22;10127;47.780;9.606;2023-04-15T11:50:39;15.10;95.70
19930;DHT22;10127;47.780;9.606;2023-04-15T11:53:07;15.00;95.80
19930;DHT22;10127;47.780;9.606;2023-04-15T11:55:43;15.10;95.10
19930;DHT22;10127;47.780;9.606;2023-04-15T11:58:15;15.20;95.20
19930;DHT22;10127;47.780;9.606;2023-04-15T12:00:56;15.10;93.40
19930;DHT22;10127;47.780;9.606;2023-04-15T12:03:47;15.30;93.80
19930;DHT22;10127;47.780;9.606;2023-04-15T12:06:23;15.40;94.30
19930;DHT22;10127;47.780;9.606;2023-04-15T12:09:03;15.40;95.00
19930;DHT22;10127;47.780;9.606;2023-04-15T12:11:44;15.40;95.10
19930;DHT22;10127;47.780;9.606;2023-04-15T12:14:26;15.40;94.50
19930;DHT22;10127;47.780;9.606;2023-04-15T12:16:56;15.30;94.40
19930;DHT22;10127;47.780;9.606;2023-04-15T12:22:17;15.60;94.80
19930;DHT22;10127;47.780;9.606;2023-04-15T12:24:44;15.70;94.40
19930;DHT22;10127;47.780;9.606;2023-04-15T12:27:14;15.50;94.10
19930;DHT22;10127;47.780;9.606;2023-04-15T12:29:41;15.20;94.00
19930;DHT22;10127;47.780;9.606;2023-04-15T12:32:08;15.20;94.00
19930;DHT22;10127;47.780;9.606;2023-04-15T12:34:39;15.20;94.20
19930;DHT22;10127;47.780;9.606;2023-04-15T12:37:07;15.10;94.10
19930;DHT22;10127;47.780;9.606;2023-04-15T12:39:45;15.00;93.70
19930;DHT22;10127;47.780;9.606;2023-04-15T12:42:13;14.90;93.50
19930;DHT22;10127;47.780;9.606;2023-04-15T12:44:39;15.00;93.70
19930;DHT22;10127;47.780;9.606;2023-04-15T12:47:06;14.60;93.30
19930;DHT22;10127;47.780;9.606;2023-04-15T12:49:32;14.50;93.30
19930;DHT22;10127;47.780;9.606;2023-04-15T12:51:59;14.50;93.40
19930;DHT22;10127;47.780;9.606;2023-04-15T12:54:25;14.70;93.40
19930;DHT22;10127;47.780;9.606;2023-04-15T12:56:52;14.80;92.90
19930;DHT22;10127;47.780;9.606;2023-04-15T12:59:18;15.10;93.00
19930;DHT22;10127;47.780;9.606;2023-04-15T13:01:45;15.40;92.40
19930;DHT22;10127;47.780;9.606;2023-04-15T13:04:11;15.50;92.20
19930;DHT22;10127;47.780;9.606;2023-04-15T13:06:37;15.90;91.80
19930;DHT22;10127;47.780;9.606;2023-04-15T13:09:03;16.20;91.70
19930;DHT22;10127;47.780;9.606;2023-04-15T13:11:29;16.20;91.40
19930;DHT22;10127;47.780;9.606;2023-04-15T13:13:56;16.00;91.30
19930;DHT22;10127;47.780;9.606;2023-04-15T13:16:23;15.90;92.00
19930;DHT22;10127;47.780;9.606;2023-04-15T13:18:49;15.60;91.20
19930;DHT22;10127;47.780;9.606;2023-04-15T13:21:15;15.80;91.90
19930;DHT22;10127;47.780;9.606;2023-04-15T13:23:41;15.80;91.60
19930;DHT22;10127;47.780;9.606;2023-04-15T13:26:07;15.90;92.00
19930;DHT22;10127;47.780;9.606;2023-04-15T13:28:33;16.00;91.90
19930;DHT22;10127;47.780;9.606;2023-04-15T13:30:59;16.10;92.40
19930;DHT22;10127;47.780;9.606;2023-04-15T13:33:25;16.20;93.20
19930;DHT22;10127;47.780;9.606;2023-04-15T13:35:51;15.90;93.30
19930;DHT22;10127;47.780;9.606;2023-04-15T13:38:16;15.90;93.90
19930;DHT22;10127;47.780;9.606;2023-04-15T13:40:42;15.60;93.90
19930;DHT22;10127;47.780;9.606;2023-04-15T13:43:07;15.50;94.50
19930;DHT22;10127;47.780;9.606;2023-04-15T13:45:33;15.20;95.40
19930;DHT22;10127;47.780;9.606;2023-04-15T13:47:59;14.90;96.10
19930;DHT22;10127;47.780;9.606;2023-04-15T13:50:24;14.80;96.10
19930;DHT22;10127;47.780;9.606;2023-04-15T13:52:50;14.70;96.30
19930;DHT22;10127;47.780;9.606;2023-04-15T13:55:16;14.80;96.80
19930;DHT22;10127;47.780;9.606;2023-04-15T13:57:41;14.80;96.90
19930;DHT22;10127;47.780;9.606;2023-04-15T14:00:07;14.60;96.60
19930;DHT22;10127;47.780;9.606;2023-04-15T14:02:33;14.60;96.50
19930;DHT22;10127;47.780;9.606;2023-04-15T14:04:58;14.80;96.90
19930;DHT22;10127;47.780;9.606;2023-04-15T14:07:24;14.80;97.00
19930;DHT22;10127;47.780;9.606;2023-04-15T14:09:50;14.70;97.00
19930;DHT22;10127;47.780;9.606;2023-04-15T14:12:15;14.70;97.60
19930;DHT22;10127;47.780;9.606;2023-04-15T14:14:41;14.30;97.40
19930;DHT22;10127;47.780;9.606;2023-04-15T14:17:06;14.20;97.80
19930;DHT22;10127;47.780;9.606;2023-04-15T14:19:33;14.00;97.30
19930;DHT22;10127;47.780;9.606;2023-04-15T14:21:59;13.80;98.10
19930;DHT22;10127;47.780;9.606;2023-04-15T14:24:25;13.60;98.80
19930;DHT22;10127;47.780;9.606;2023-04-15T14:26:50;13.50;98.80
19930;DHT22;10127;47.780;9.606;2023-04-15T14:29:16;13.40;99.10
19930;DHT22;10127;47.780;9.606;2023-04-15T14:31:42;13.30;99.90
19930;DHT22;10127;47.780;9.606;2023-04-15T14:34:09;13.30;99.90
19930;DHT22;10127;47.780;9.606;2023-04-15T14:36:35;13.10;98.70
19930;DHT22;10127;47.780;9.606;2023-04-15T14:39:00;13.10;98.20
19930;DHT22;10127;47.780;9.606;2023-04-15T14:41:27;13.00;98.50
19930;DHT22;10127;47.780;9.606;2023-04-15T14:43:52;12.90;98.20
19930;DHT22;10127;47.780;9.606;2023-04-15T14:46:18;12.80;97.90
19930;DHT22;10127;47.780;9.606;2023-04-15T14:48:43;12.80;98.20
19930;DHT22;10127;47.780;9.606;2023-04-15T14:51:09;12.70;98.40
19930;DHT22;10127;47.780;9.606;2023-04-15T14:53:34;12.70;99.30
19930;DHT22;10127;47.780;9.606;2023-04-15T14:56:00;12.70;99.90
19930;DHT22;10127;47.780;9.606;2023-04-15T14:58:26;12.70;99.90
19930;DHT22;10127;47.780;9.606;2023-04-15T15:00:51;12.60;99.90
19930;DHT22;10127;47.780;9.606;2023-04-15T15:03:17;12.60;99.90
19930;DHT22;10127;47.780;9.606;2023-04-15T15:05:44;12.50;99.90
19930;DHT22;10127;47.780;9.606;2023-04-15T15:08:10;12.50;99.80
19930;DHT22;10127;47.780;9.606;2023-04-15T15:10:37;12.50;99.90
19930;DHT22;10127;47.780;9.606;2023-04-15T15:13:05;12.60;99.60
19930;DHT22;10127;47.780;9.606;2023-04-15T15:15:31;12.50;99.90
19930;DHT22;10127;47.780;9.606;2023-04-15T15:17:56;12.60;99.90
19930;DHT22;10127;47.780;9.606;2023-04-15T15:20:23;12.60;99.90
19930;DHT22;10127;47.780;9.606;2023-04-15T15:22:48;12.70;99.90
19930;DHT22;10127;47.780;9.606;2023-04-15T15:25:14;12.80;99.90
19930;DHT22;10127;47.780;9.606;2023-04-15T15:27:39;12.90;99.30
19930;DHT22;10127;47.780;9.606;2023-04-15T15:30:05;12.80;99.40
19930;DHT22;10127;47.780;9.606;2023-04-15T15:32:31;12.70;98.20
19930;DHT22;10127;47.780;9.606;2023-04-15T15:34:57;12.60;98.40
19930;DHT22;10127;47.780;9.606;2023-04-15T15:37:22;12.70;98.30
19930;DHT22;10127;47.780;9.606;2023-04-15T15:39:48;12.70;98.10
19930;DHT22;10127;47.780;9.606;2023-04-15T15:42:15;12.60;98.50
19930;DHT22;10127;47.780;9.606;2023-04-15T15:44:47;12.50;99.90
19930;DHT22;10127;47.780;9.606;2023-04-15T15:47:23;12.20;99.90
19930;DHT22;10127;47.780;9.606;2023-04-15T15:49:50;12.10;99.90
19930;DHT22;10127;47.780;9.606;2023-04-15T15:52:16;12.00;99.90
19930;DHT22;10127;47.780;9.606;2023-04-15T15:54:42;11.70;99.90
19930;DHT22;10127;47.780;9.606;2023-04-15T15:57:07;11.50;99.90
19930;DHT22;10127;47.780;9.606;2023-04-15T15:59:33;11.40;99.90
19930;DHT22;10127;47.780;9.606;2023-04-15T16:01:59;11.50;99.90
19930;DHT22;10127;47.780;9.606;2023-04-15T16:04:25;11.40;99.90
19930;DHT22;10127;47.780;9.606;2023-04-15T16:06:51;11.40;99.90
19930;DHT22;10127;47.780;9.606;2023-04-15T16:09:17;11.40;99.90
19930;DHT22;10127;47.780;9.606;2023-04-15T16:11:43;11.50;99.90
19930;DHT22;10127;47.780;9.606;2023-04-15T16:14:09;11.50;99.90